sensor_id;sensor_type;location;lat;lon;timestamp;P1;durP1;ratioP1;P2;durP2;ratioP2
9140;SDS011;46330;50.822;7.126;2023-05-20T00:00:54;4.00;;;1.80;;
9140;SDS011;46330;50.822;7.126;2023-05-20T00:03:22;4.28;;;2.00;;
9140;SDS011;46330;50.822;7.126;2023-05-20T00:05:51;2.30;;;1.80;;
9140;SDS011;46330;50.822;7.126;2023-05-20T00:08:19;4.50;;;1.80;;
9140;SDS011;46330;50.822;7.126;2023-05-20T00:10:47;3.03;;;1.77;;
9140;SDS011;46330;50.822;7.126;2023-05-20T00:13:15;3.13;;;1.70;;
9140;SDS011;46330;50.822;7.126;2023-05-20T00:15:43;5.18;;;1.90;;
9140;SDS011;46330;50.822;7.126;2023-05-20T00:18:11;4.47;;;1.90;;
9140;SDS011;46330;50.822;7.126;2023-05-20T00:20:39;2.75;;;1.70;;
9140;SDS011;46330;50.822;7.126;2023-05-20T00:23:08;3.40;;;1.90;;
9140;SDS011;46330;50.822;7.126;2023-05-20T00:25:36;3.60;;;1.95;;
9140;SDS011;46330;50.822;7.126;2023-05-20T00:28:04;3.03;;;1.77;;
9140;SDS011;46330;50.822;7.126;2023-05-20T00:30:33;2.55;;;1.90;;
9140;SDS011;46330;50.822;7.126;2023-05-20T00:33:01;5.18;;;1.92;;
9140;SDS011;46330;50.822;7.126;2023-05-20T00:35:29;1.90;;;1.73;;
9140;SDS011;46330;50.822;7.126;2023-05-20T00:37:57;4.25;;;2.00;;
9140;SDS011;46330;50.822;7.126;2023-05-20T00:40:26;3.08;;;1.80;;
9140;SDS011;46330;50.822;7.126;2023-05-20T00:42:54;3.40;;;2.00;;
9140;SDS011;46330;50.822;7.126;2023-05-20T00:45:23;3.75;;;1.70;;
9140;SDS011;46330;50.822;7.126;2023-05-20T00:47:51;6.53;;;2.20;;
9140;SDS011;46330;50.822;7.126;2023-05-20T00:50:22;6.00;;;2.30;;
9140;SDS011;46330;50.822;7.126;2023-05-20T00:52:51;3.05;;;2.05;;
9140;SDS011;46330;50.822;7.126;2023-05-20T00:55:20;4.53;;;2.28;;
9140;SDS011;46330;50.822;7.126;2023-05-20T00:57:50;4.30;;;2.13;;
9140;SDS011;46330;50.822;7.126;2023-05-20T01:00:19;5.80;;;2.20;;
9140;SDS011;46330;50.822;7.126;2023-05-20T01:02:47;4.70;;;2.15;;
9140;SDS011;46330;50.822;7.126;2023-05-20T01:05:15;4.00;;;2.20;;
9140;SDS011;46330;50.822;7.126;2023-05-20T01:07:43;5.10;;;2.55;;
9140;SDS011;46330;50.822;7.126;2023-05-20T01:10:11;12.98;;;4.43;;
9140;SDS011;46330;50.822;7.126;2023-05-20T01:12:41;22.42;;;6.65;;
9140;SDS011;46330;50.822;7.126;2023-05-20T01:15:14;11.32;;;4.25;;
9140;SDS011;46330;50.822;7.126;2023-05-20T01:17:45;11.30;;;4.55;;
9140;SDS011;46330;50.822;7.126;2023-05-20T01:20:13;12.68;;;4.68;;
9140;SDS011;46330;50.822;7.126;2023-05-20T01:22:51;10.23;;;3.80;;
9140;SDS011;46330;50.822;7.126;2023-05-20T01:25:21;10.77;;;3.80;;
9140;SDS011;46330;50.822;7.126;2023-05-20T01:27:50;12.32;;;4.07;;
9140;SDS011;46330;50.822;7.126;2023-05-20T01:30:19;10.43;;;3.83;;
9140;SDS011;46330;50.822;7.126;2023-05-20T01:32:49;12.95;;;3.83;;
9140;SDS011;46330;50.822;7.126;2023-05-20T01:35:21;7.45;;;3.17;;
9140;SDS011;46330;50.822;7.126;2023-05-20T01:37:50;11.45;;;3.95;;
9140;SDS011;46330;50.822;7.126;2023-05-20T01:40:20;9.13;;;3.13;;
9140;SDS011;46330;50.822;7.126;2023-05-20T01:42:50;6.65;;;3.45;;
9140;SDS011;46330;50.822;7.126;2023-05-20T01:45:22;6.82;;;3.15;;
9140;SDS011;46330;50.822;7.126;2023-05-20T01:47:50;7.18;;;3.00;;
9140;SDS011;46330;50.822;7.126;2023-05-20T01:50:18;6.47;;;2.90;;
9140;SDS011;46330;50.822;7.126;2023-05-20T01:52:46;6.00;;;2.67;;
9140;SDS011;46330;50.822;7.126;2023-05-20T01:55:16;4.82;;;2.88;;
9140;SDS011;46330;50.822;7.126;2023-05-20T01:57:44;4.32;;;2.35;;
9140;SDS011;46330;50.822;7.126;2023-05-20T02:00:12;4.25;;;2.47;;
9140;SDS011;46330;50.822;7.126;2023-05-20T02:02:43;4.15;;;2.40;;
9140;SDS011;46330;50.822;7.126;2023-05-20T02:05:12;6.85;;;2.40;;
9140;SDS011;46330;50.822;7.126;2023-05-20T02:07:41;3.10;;;2.40;;
9140;SDS011;46330;50.822;7.126;2023-05-20T02:10:09;3.88;;;2.50;;
9140;SDS011;46330;50.822;7.126;2023-05-20T02:12:39;3.85;;;2.30;;
9140;SDS011;46330;50.822;7.126;2023-05-20T02:15:08;4.22;;;2.42;;
9140;SDS011;46330;50.822;7.126;2023-05-20T02:17:36;4.15;;;2.40;;
9140;SDS011;46330;50.822;7.126;2023-05-20T02:20:06;4.35;;;2.28;;
9140;SDS011;46330;50.822;7.126;2023-05-20T02:22:35;3.38;;;2.30;;
9140;SDS011;46330;50.822;7.126;2023-05-20T02:25:03;3.20;;;2.50;;
9140;SDS011;46330;50.822;7.126;2023-05-20T02:27:32;4.85;;;2.25;;
9140;SDS011;46330;50.822;7.126;2023-05-20T02:30:01;3.78;;;2.35;;
9140;SDS011;46330;50.822;7.126;2023-05-20T02:32:29;4.80;;;2.55;;
9140;SDS011;46330;50.822;7.126;2023-05-20T02:34:59;3.70;;;2.65;;
9140;SDS011;46330;50.822;7.126;2023-05-20T02:37:27;3.65;;;2.53;;
9140;SDS011;46330;50.822;7.126;2023-05-20T02:40:05;4.53;;;2.80;;
9140;SDS011;46330;50.822;7.126;2023-05-20T02:42:37;3.45;;;2.45;;
9140;SDS011;46330;50.822;7.126;2023-05-20T02:45:07;4.40;;;2.50;;
9140;SDS011;46330;50.822;7.126;2023-05-20T02:47:37;3.92;;;2.70;;
9140;SDS011;46330;50.822;7.126;2023-05-20T02:50:05;5.50;;;2.70;;
9140;SDS011;46330;50.822;7.126;2023-05-20T02:52:35;3.50;;;2.35;;
9140;SDS011;46330;50.822;7.126;2023-05-20T02:55:03;5.55;;;2.90;;
9140;SDS011;46330;50.822;7.126;2023-05-20T02:57:33;3.42;;;2.60;;
9140;SDS011;46330;50.822;7.126;2023-05-20T03:00:07;4.30;;;2.47;;
9140;SDS011;46330;50.822;7.126;2023-05-20T03:02:36;4.03;;;2.80;;
9140;SDS011;46330;50.822;7.126;2023-05-20T03:05:06;3.30;;;2.58;;
9140;SDS011;46330;50.822;7.126;2023-05-20T03:07:35;5.00;;;2.53;;
9140;SDS011;46330;50.822;7.126;2023-05-20T03:10:05;3.72;;;2.60;;
9140;SDS011;46330;50.822;7.126;2023-05-20T03:12:36;4.10;;;2.30;;
9140;SDS011;46330;50.822;7.126;2023-05-20T03:15:05;4.35;;;2.60;;
9140;SDS011;46330;50.822;7.126;2023-05-20T03:17:36;7.65;;;2.65;;
9140;SDS011;46330;50.822;7.126;2023-05-20T03:20:04;3.63;;;2.38;;
9140;SDS011;46330;50.822;7.126;2023-05-20T03:22:33;4.22;;;2.53;;
9140;SDS011;46330;50.822;7.126;2023-05-20T03:25:01;4.53;;;2.92;;
9140;SDS011;46330;50.822;7.126;2023-05-20T03:27:31;5.80;;;2.67;;
9140;SDS011;46330;50.822;7.126;2023-05-20T03:30:00;3.67;;;2.65;;
9140;SDS011;46330;50.822;7.126;2023-05-20T03:32:29;5.22;;;2.67;;
9140;SDS011;46330;50.822;7.126;2023-05-20T03:34:57;4.45;;;3.00;;
9140;SDS011;46330;50.822;7.126;2023-05-20T03:37:26;5.25;;;3.60;;
9140;SDS011;46330;50.822;7.126;2023-05-20T03:39:54;6.15;;;3.55;;
9140;SDS011;46330;50.822;7.126;2023-05-20T03:42:23;8.20;;;5.10;;
9140;SDS011;46330;50.822;7.126;2023-05-20T03:44:51;5.95;;;3.00;;
9140;SDS011;46330;50.822;7.126;2023-05-20T03:47:19;5.47;;;3.50;;
9140;SDS011;46330;50.822;7.126;2023-05-20T03:49:49;5.55;;;3.67;;
9140;SDS011;46330;50.822;7.126;2023-05-20T03:52:17;5.65;;;3.35;;
9140;SDS011;46330;50.822;7.126;2023-05-20T03:54:45;6.25;;;3.50;;
9140;SDS011;46330;50.822;7.126;2023-05-20T03:57:13;4.78;;;3.20;;
9140;SDS011;46330;50.822;7.126;2023-05-20T03:59:41;4.88;;;3.25;;
9140;SDS011;46330;50.822;7.126;2023-05-20T04:02:09;6.35;;;3.75;;
9140;SDS011;46330;50.822;7.126;2023-05-20T04:04:38;6.80;;;4.13;;
9140;SDS011;46330;50.822;7.126;2023-05-20T04:07:10;9.60;;;4.10;;
9140;SDS011;46330;50.822;7.126;2023-05-20T04:09:38;7.43;;;4.80;;
9140;SDS011;46330;50.822;7.126;2023-05-20T04:12:06;12.85;;;7.45;;
9140;SDS011;46330;50.822;7.126;2023-05-20T04:14:34;7.70;;;5.38;;
9140;SDS011;46330;50.822;7.126;2023-05-20T04:17:02;10.82;;;5.05;;
9140;SDS011;46330;50.822;7.126;2023-05-20T04:19:31;8.93;;;4.72;;
9140;SDS011;46330;50.822;7.126;2023-05-20T04:22:00;9.23;;;4.65;;
9140;SDS011;46330;50.822;7.126;2023-05-20T04:24:30;5.05;;;3.35;;
9140;SDS011;46330;50.822;7.126;2023-05-20T04:26:58;6.32;;;4.00;;
9140;SDS011;46330;50.822;7.126;2023-05-20T04:29:27;6.63;;;3.45;;
9140;SDS011;46330;50.822;7.126;2023-05-20T04:31:55;7.75;;;3.90;;
9140;SDS011;46330;50.822;7.126;2023-05-20T04:34:24;7.72;;;3.42;;
9140;SDS011;46330;50.822;7.126;2023-05-20T04:36:52;20.35;;;11.43;;
9140;SDS011;46330;50.822;7.126;2023-05-20T04:39:21;11.55;;;7.47;;
9140;SDS011;46330;50.822;7.126;2023-05-20T04:41:53;8.57;;;4.40;;
9140;SDS011;46330;50.822;7.126;2023-05-20T04:44:21;8.00;;;3.58;;
9140;SDS011;46330;50.822;7.126;2023-05-20T04:46:50;6.63;;;3.85;;
9140;SDS011;46330;50.822;7.126;2023-05-20T04:49:18;5.50;;;3.50;;
9140;SDS011;46330;50.822;7.126;2023-05-20T04:51:46;7.00;;;3.75;;
9140;SDS011;46330;50.822;7.126;2023-05-20T04:54:17;7.25;;;3.40;;
9140;SDS011;46330;50.822;7.126;2023-05-20T04:56:45;6.50;;;3.70;;
9140;SDS011;46330;50.822;7.126;2023-05-20T04:59:15;7.05;;;3.72;;
9140;SDS011;46330;50.822;7.126;2023-05-20T05:01:43;9.77;;;3.70;;
9140;SDS011;46330;50.822;7.126;2023-05-20T05:04:11;5.53;;;3.42;;
9140;SDS011;46330;50.822;7.126;2023-05-20T05:06:39;6.38;;;3.22;;
9140;SDS011;46330;50.822;7.126;2023-05-20T05:09:08;5.88;;;3.17;;
9140;SDS011;46330;50.822;7.126;2023-05-20T05:11:40;5.50;;;3.00;;
9140;SDS011;46330;50.822;7.126;2023-05-20T05:14:07;5.22;;;2.90;;
9140;SDS011;46330;50.822;7.126;2023-05-20T05:16:37;3.38;;;2.72;;
9140;SDS011;46330;50.822;7.126;2023-05-20T05:19:05;5.78;;;2.80;;
9140;SDS011;46330;50.822;7.126;2023-05-20T05:21:37;4.97;;;3.03;;
9140;SDS011;46330;50.822;7.126;2023-05-20T05:24:05;6.80;;;2.75;;
9140;SDS011;46330;50.822;7.126;2023-05-20T05:26:34;8.63;;;5.30;;
9140;SDS011;46330;50.822;7.126;2023-05-20T05:29:02;8.68;;;4.85;;
9140;SDS011;46330;50.822;7.126;2023-05-20T05:31:30;7.78;;;3.63;;
9140;SDS011;46330;50.822;7.126;2023-05-20T05:34:00;8.65;;;3.60;;
9140;SDS011;46330;50.822;7.126;2023-05-20T05:36:31;8.30;;;3.35;;
9140;SDS011;46330;50.822;7.126;2023-05-20T05:39:00;4.93;;;3.10;;
9140;SDS011;46330;50.822;7.126;2023-05-20T05:41:29;4.35;;;2.80;;
9140;SDS011;46330;50.822;7.126;2023-05-20T05:43:58;3.65;;;3.05;;
9140;SDS011;46330;50.822;7.126;2023-05-20T05:46:27;4.07;;;2.78;;
9140;SDS011;46330;50.822;7.126;2023-05-20T05:48:55;5.00;;;2.92;;
9140;SDS011;46330;50.822;7.126;2023-05-20T05:51:26;4.72;;;2.92;;
9140;SDS011;46330;50.822;7.126;2023-05-20T05:53:55;4.60;;;2.92;;
9140;SDS011;46330;50.822;7.126;2023-05-20T05:56:23;5.35;;;2.80;;
9140;SDS011;46330;50.822;7.126;2023-05-20T05:58:51;6.40;;;2.90;;
9140;SDS011;46330;50.822;7.126;2023-05-20T06:01:19;4.65;;;2.70;;
9140;SDS011;46330;50.822;7.126;2023-05-20T06:03:47;3.63;;;2.83;;
9140;SDS011;46330;50.822;7.126;2023-05-20T06:06:15;6.22;;;2.97;;
9140;SDS011;46330;50.822;7.126;2023-05-20T06:08:45;4.55;;;2.80;;
9140;SDS011;46330;50.822;7.126;2023-05-20T06:11:14;4.57;;;2.65;;
9140;SDS011;46330;50.822;7.126;2023-05-20T06:13:42;3.28;;;2.70;;
9140;SDS011;46330;50.822;7.126;2023-05-20T06:16:10;5.47;;;3.25;;
9140;SDS011;46330;50.822;7.126;2023-05-20T06:18:38;5.68;;;3.60;;
9140;SDS011;46330;50.822;7.126;2023-05-20T06:21:06;4.95;;;2.70;;
9140;SDS011;46330;50.822;7.126;2023-05-20T06:23:34;3.20;;;2.60;;
9140;SDS011;46330;50.822;7.126;2023-05-20T06:26:05;4.75;;;2.80;;
9140;SDS011;46330;50.822;7.126;2023-05-20T06:28:34;3.95;;;2.42;;
9140;SDS011;46330;50.822;7.126;2023-05-20T06:31:02;6.50;;;2.50;;
9140;SDS011;46330;50.822;7.126;2023-05-20T06:33:33;3.78;;;2.45;;
9140;SDS011;46330;50.822;7.126;2023-05-20T06:36:06;5.05;;;2.40;;
9140;SDS011;46330;50.822;7.126;2023-05-20T06:38:34;5.15;;;2.65;;
9140;SDS011;46330;50.822;7.126;2023-05-20T06:41:03;4.22;;;2.58;;
9140;SDS011;46330;50.822;7.126;2023-05-20T06:43:33;6.90;;;2.47;;
9140;SDS011;46330;50.822;7.126;2023-05-20T06:46:08;4.47;;;3.22;;
9140;SDS011;46330;50.822;7.126;2023-05-20T06:48:41;4.47;;;2.60;;
9140;SDS011;46330;50.822;7.126;2023-05-20T06:51:10;5.68;;;2.40;;
9140;SDS011;46330;50.822;7.126;2023-05-20T06:53:38;5.80;;;2.50;;
9140;SDS011;46330;50.822;7.126;2023-05-20T06:56:08;4.53;;;2.60;;
9140;SDS011;46330;50.822;7.126;2023-05-20T06:58:36;3.53;;;2.40;;
9140;SDS011;46330;50.822;7.126;2023-05-20T07:01:04;3.40;;;2.60;;
9140;SDS011;46330;50.822;7.126;2023-05-20T07:03:32;2.90;;;2.25;;
9140;SDS011;46330;50.822;7.126;2023-05-20T07:06:00;3.92;;;2.40;;
9140;SDS011;46330;50.822;7.126;2023-05-20T07:08:29;3.78;;;2.25;;
9140;SDS011;46330;50.822;7.126;2023-05-20T07:10:57;3.28;;;2.47;;
9140;SDS011;46330;50.822;7.126;2023-05-20T07:13:28;4.80;;;2.38;;
9140;SDS011;46330;50.822;7.126;2023-05-20T07:15:57;6.47;;;2.40;;
9140;SDS011;46330;50.822;7.126;2023-05-20T07:18:25;2.80;;;2.50;;
9140;SDS011;46330;50.822;7.126;2023-05-20T07:20:56;4.32;;;2.40;;
9140;SDS011;46330;50.822;7.126;2023-05-20T07:23:32;3.45;;;2.33;;
9140;SDS011;46330;50.822;7.126;2023-05-20T07:26:01;3.92;;;2.50;;
9140;SDS011;46330;50.822;7.126;2023-05-20T07:28:30;3.30;;;2.33;;
9140;SDS011;46330;50.822;7.126;2023-05-20T07:30:58;5.60;;;2.20;;
9140;SDS011;46330;50.822;7.126;2023-05-20T07:33:28;3.95;;;2.47;;
9140;SDS011;46330;50.822;7.126;2023-05-20T07:35:57;2.72;;;2.40;;
9140;SDS011;46330;50.822;7.126;2023-05-20T07:38:25;3.55;;;2.30;;
9140;SDS011;46330;50.822;7.126;2023-05-20T07:40:57;4.20;;;2.50;;
9140;SDS011;46330;50.822;7.126;2023-05-20T07:43:27;3.55;;;2.50;;
9140;SDS011;46330;50.822;7.126;2023-05-20T07:45:57;5.18;;;2.40;;
9140;SDS011;46330;50.822;7.126;2023-05-20T07:48:25;2.90;;;2.50;;
9140;SDS011;46330;50.822;7.126;2023-05-20T07:50:53;4.90;;;2.70;;
9140;SDS011;46330;50.822;7.126;2023-05-20T07:53:22;3.47;;;2.30;;
9140;SDS011;46330;50.822;7.126;2023-05-20T07:55:51;3.65;;;2.50;;
9140;SDS011;46330;50.822;7.126;2023-05-20T07:58:19;4.43;;;2.63;;
9140;SDS011;46330;50.822;7.126;2023-05-20T08:00:48;4.85;;;2.42;;
9140;SDS011;46330;50.822;7.126;2023-05-20T08:03:18;2.75;;;2.28;;
9140;SDS011;46330;50.822;7.126;2023-05-20T08:06:02;3.88;;;2.22;;
9140;SDS011;46330;50.822;7.126;2023-05-20T08:08:30;4.22;;;2.50;;
9140;SDS011;46330;50.822;7.126;2023-05-20T08:11:04;4.65;;;2.30;;
9140;SDS011;46330;50.822;7.126;2023-05-20T08:13:32;2.92;;;2.20;;
9140;SDS011;46330;50.822;7.126;2023-05-20T08:16:00;2.67;;;2.40;;
9140;SDS011;46330;50.822;7.126;2023-05-20T08:18:31;3.35;;;2.47;;
9140;SDS011;46330;50.822;7.126;2023-05-20T08:21:02;2.78;;;2.33;;
9140;SDS011;46330;50.822;7.126;2023-05-20T08:23:33;4.82;;;2.40;;
9140;SDS011;46330;50.822;7.126;2023-05-20T08:26:06;3.35;;;2.70;;
9140;SDS011;46330;50.822;7.126;2023-05-20T08:28:38;3.40;;;2.42;;
9140;SDS011;46330;50.822;7.126;2023-05-20T08:31:06;3.00;;;2.40;;
9140;SDS011;46330;50.822;7.126;2023-05-20T08:33:36;4.45;;;2.40;;
9140;SDS011;46330;50.822;7.126;2023-05-20T08:36:05;3.72;;;2.47;;
9140;SDS011;46330;50.822;7.126;2023-05-20T08:38:33;6.60;;;2.58;;
9140;SDS011;46330;50.822;7.126;2023-05-20T08:41:02;5.25;;;2.35;;
9140;SDS011;46330;50.822;7.126;2023-05-20T08:43:30;6.20;;;2.30;;
9140;SDS011;46330;50.822;7.126;2023-05-20T08:45:59;4.60;;;2.30;;
9140;SDS011;46330;50.822;7.126;2023-05-20T08:48:33;4.20;;;2.15;;
9140;SDS011;46330;50.822;7.126;2023-05-20T08:51:03;6.10;;;2.45;;
9140;SDS011;46330;50.822;7.126;2023-05-20T08:53:34;2.90;;;2.30;;
9140;SDS011;46330;50.822;7.126;2023-05-20T08:56:03;4.50;;;2.33;;
9140;SDS011;46330;50.822;7.126;2023-05-20T08:58:31;6.70;;;2.53;;
9140;SDS011;46330;50.822;7.126;2023-05-20T09:00:59;3.33;;;2.40;;
9140;SDS011;46330;50.822;7.126;2023-05-20T09:03:27;3.97;;;2.33;;
9140;SDS011;46330;50.822;7.126;2023-05-20T09:06:02;3.33;;;2.10;;
9140;SDS011;46330;50.822;7.126;2023-05-20T09:08:32;4.38;;;2.40;;
9140;SDS011;46330;50.822;7.126;2023-05-20T09:11:00;2.80;;;2.00;;
9140;SDS011;46330;50.822;7.126;2023-05-20T09:13:29;3.10;;;2.30;;
9140;SDS011;46330;50.822;7.126;2023-05-20T09:15:58;4.43;;;2.30;;
9140;SDS011;46330;50.822;7.126;2023-05-20T09:18:27;5.05;;;2.28;;
9140;SDS011;46330;50.822;7.126;2023-05-20T09:20:56;3.35;;;2.30;;
9140;SDS011;46330;50.822;7.126;2023-05-20T09:23:25;3.72;;;2.55;;
9140;SDS011;46330;50.822;7.126;2023-05-20T09:25:56;6.00;;;2.42;;
9140;SDS011;46330;50.822;7.126;2023-05-20T09:28:27;3.08;;;2.17;;
9140;SDS011;46330;50.822;7.126;2023-05-20T09:30:56;6.68;;;2.20;;
9140;SDS011;46330;50.822;7.126;2023-05-20T09:33:26;4.45;;;2.30;;
9140;SDS011;46330;50.822;7.126;2023-05-20T09:36:00;4.70;;;2.13;;
9140;SDS011;46330;50.822;7.126;2023-05-20T09:38:33;2.72;;;2.10;;
9140;SDS011;46330;50.822;7.126;2023-05-20T09:41:05;4.82;;;2.45;;
9140;SDS011;46330;50.822;7.126;2023-05-20T09:43:34;3.85;;;2.08;;
9140;SDS011;46330;50.822;7.126;2023-05-20T09:46:03;2.63;;;2.10;;
9140;SDS011;46330;50.822;7.126;2023-05-20T09:48:32;3.03;;;2.20;;
9140;SDS011;46330;50.822;7.126;2023-05-20T09:51:03;4.18;;;2.28;;
9140;SDS011;46330;50.822;7.126;2023-05-20T09:53:34;5.07;;;2.42;;
9140;SDS011;46330;50.822;7.126;2023-05-20T09:56:03;3.45;;;2.20;;
9140;SDS011;46330;50.822;7.126;2023-05-20T09:58:32;4.32;;;2.15;;
9140;SDS011;46330;50.822;7.126;2023-05-20T10:01:02;5.13;;;2.50;;
9140;SDS011;46330;50.822;7.126;2023-05-20T10:03:30;3.90;;;2.53;;
9140;SDS011;46330;50.822;7.126;2023-05-20T10:06:03;6.05;;;2.28;;
9140;SDS011;46330;50.822;7.126;2023-05-20T10:08:56;2.58;;;2.30;;
9140;SDS011;46330;50.822;7.126;2023-05-20T10:11:33;5.50;;;2.50;;
9140;SDS011;46330;50.822;7.126;2023-05-20T10:16:43;5.00;;;2.90;;
9140;SDS011;46330;50.822;7.126;2023-05-20T10:19:19;3.80;;;2.70;;
9140;SDS011;46330;50.822;7.126;2023-05-20T10:21:58;4.05;;;2.45;;
9140;SDS011;46330;50.822;7.126;2023-05-20T10:24:29;2.90;;;2.55;;
9140;SDS011;46330;50.822;7.126;2023-05-20T10:27:00;4.38;;;2.90;;
9140;SDS011;46330;50.822;7.126;2023-05-20T10:29:31;3.92;;;2.80;;
9140;SDS011;46330;50.822;7.126;2023-05-20T10:32:09;3.03;;;2.58;;
9140;SDS011;46330;50.822;7.126;2023-05-20T10:34:44;4.95;;;2.63;;
9140;SDS011;46330;50.822;7.126;2023-05-20T10:37:20;3.83;;;2.88;;
9140;SDS011;46330;50.822;7.126;2023-05-20T10:40:01;4.65;;;2.78;;
9140;SDS011;46330;50.822;7.126;2023-05-20T10:42:30;4.20;;;2.80;;
9140;SDS011;46330;50.822;7.126;2023-05-20T10:44:58;5.57;;;3.10;;
9140;SDS011;46330;50.822;7.126;2023-05-20T10:47:26;3.80;;;2.80;;
9140;SDS011;46330;50.822;7.126;2023-05-20T10:49:54;3.90;;;2.90;;
9140;SDS011;46330;50.822;7.126;2023-05-20T10:52:23;3.75;;;2.80;;
9140;SDS011;46330;50.822;7.126;2023-05-20T10:54:55;4.15;;;2.70;;
9140;SDS011;46330;50.822;7.126;2023-05-20T10:57:24;5.35;;;3.10;;
9140;SDS011;46330;50.822;7.126;2023-05-20T10:59:53;3.22;;;2.92;;
9140;SDS011;46330;50.822;7.126;2023-05-20T11:02:22;3.58;;;2.80;;
9140;SDS011;46330;50.822;7.126;2023-05-20T11:04:52;3.78;;;3.13;;
9140;SDS011;46330;50.822;7.126;2023-05-20T11:07:25;6.40;;;3.10;;
9140;SDS011;46330;50.822;7.126;2023-05-20T11:09:56;9.07;;;3.08;;
9140;SDS011;46330;50.822;7.126;2023-05-20T11:12:24;3.58;;;2.78;;
9140;SDS011;46330;50.822;7.126;2023-05-20T11:14:53;6.53;;;2.72;;
9140;SDS011;46330;50.822;7.126;2023-05-20T11:17:21;4.63;;;3.10;;
9140;SDS011;46330;50.822;7.126;2023-05-20T11:19:49;4.53;;;3.05;;
9140;SDS011;46330;50.822;7.126;2023-05-20T11:22:18;5.00;;;2.72;;
9140;SDS011;46330;50.822;7.126;2023-05-20T11:24:45;4.93;;;3.17;;
9140;SDS011;46330;50.822;7.126;2023-05-20T11:27:15;3.60;;;2.95;;
9140;SDS011;46330;50.822;7.126;2023-05-20T11:29:43;3.72;;;2.83;;
9140;SDS011;46330;50.822;7.126;2023-05-20T11:32:11;5.10;;;3.33;;
9140;SDS011;46330;50.822;7.126;2023-05-20T11:34:39;7.25;;;3.20;;
9140;SDS011;46330;50.822;7.126;2023-05-20T11:37:08;4.07;;;3.22;;
9140;SDS011;46330;50.822;7.126;2023-05-20T11:39:37;5.88;;;3.30;;
9140;SDS011;46330;50.822;7.126;2023-05-20T11:42:05;4.47;;;2.85;;
9140;SDS011;46330;50.822;7.126;2023-05-20T11:44:35;4.03;;;2.83;;
9140;SDS011;46330;50.822;7.126;2023-05-20T11:47:03;4.63;;;3.08;;
9140;SDS011;46330;50.822;7.126;2023-05-20T11:49:38;4.28;;;3.25;;
9140;SDS011;46330;50.822;7.126;2023-05-20T11:52:07;5.50;;;3.23;;
9140;SDS011;46330;50.822;7.126;2023-05-20T11:54:36;3.35;;;2.88;;
9140;SDS011;46330;50.822;7.126;2023-05-20T11:57:04;4.50;;;2.95;;
9140;SDS011;46330;50.822;7.126;2023-05-20T11:59:32;4.43;;;3.20;;
9140;SDS011;46330;50.822;7.126;2023-05-20T12:02:02;5.78;;;3.25;;
9140;SDS011;46330;50.822;7.126;2023-05-20T12:04:31;4.82;;;2.92;;
9140;SDS011;46330;50.822;7.126;2023-05-20T12:06:59;4.82;;;3.30;;
9140;SDS011;46330;50.822;7.126;2023-05-20T12:09:29;4.72;;;3.40;;
9140;SDS011;46330;50.822;7.126;2023-05-20T12:11:57;5.32;;;3.20;;
9140;SDS011;46330;50.822;7.126;2023-05-20T12:14:25;4.10;;;3.10;;
9140;SDS011;46330;50.822;7.126;2023-05-20T12:16:54;5.55;;;3.30;;
9140;SDS011;46330;50.822;7.126;2023-05-20T12:19:22;3.92;;;3.00;;
9140;SDS011;46330;50.822;7.126;2023-05-20T12:21:50;3.85;;;2.95;;
9140;SDS011;46330;50.822;7.126;2023-05-20T12:24:18;5.20;;;2.78;;
9140;SDS011;46330;50.822;7.126;2023-05-20T12:26:46;4.70;;;2.85;;
9140;SDS011;46330;50.822;7.126;2023-05-20T12:29:14;5.38;;;3.00;;
9140;SDS011;46330;50.822;7.126;2023-05-20T12:31:42;4.05;;;2.88;;
9140;SDS011;46330;50.822;7.126;2023-05-20T12:34:11;4.97;;;3.38;;
9140;SDS011;46330;50.822;7.126;2023-05-20T12:36:39;4.97;;;2.80;;
9140;SDS011;46330;50.822;7.126;2023-05-20T12:39:07;4.00;;;3.00;;
9140;SDS011;46330;50.822;7.126;2023-05-20T12:41:36;4.07;;;2.80;;
9140;SDS011;46330;50.822;7.126;2023-05-20T12:44:04;3.67;;;2.78;;
9140;SDS011;46330;50.822;7.126;2023-05-20T12:46:33;3.92;;;3.00;;
9140;SDS011;46330;50.822;7.126;2023-05-20T12:49:01;4.50;;;2.60;;
9140;SDS011;46330;50.822;7.126;2023-05-20T12:51:31;4.13;;;2.85;;
9140;SDS011;46330;50.822;7.126;2023-05-20T12:53:59;8.48;;;3.33;;
9140;SDS011;46330;50.822;7.126;2023-05-20T12:56:26;3.15;;;2.80;;
9140;SDS011;46330;50.822;7.126;2023-05-20T12:58:55;3.97;;;2.75;;
9140;SDS011;46330;50.822;7.126;2023-05-20T13:01:23;6.88;;;3.15;;
9140;SDS011;46330;50.822;7.126;2023-05-20T13:03:52;6.70;;;3.10;;
9140;SDS011;46330;50.822;7.126;2023-05-20T13:06:20;4.13;;;3.10;;
9140;SDS011;46330;50.822;7.126;2023-05-20T13:08:50;4.03;;;2.97;;
9140;SDS011;46330;50.822;7.126;2023-05-20T13:11:18;4.05;;;2.60;;
9140;SDS011;46330;50.822;7.126;2023-05-20T13:13:47;5.30;;;2.80;;
9140;SDS011;46330;50.822;7.126;2023-05-20T13:16:15;4.80;;;2.97;;
9140;SDS011;46330;50.822;7.126;2023-05-20T13:18:43;3.03;;;2.60;;
9140;SDS011;46330;50.822;7.126;2023-05-20T13:21:11;4.72;;;3.08;;
9140;SDS011;46330;50.822;7.126;2023-05-20T13:23:40;5.85;;;2.90;;
9140;SDS011;46330;50.822;7.126;2023-05-20T13:26:10;3.30;;;2.85;;
9140;SDS011;46330;50.822;7.126;2023-05-20T13:28:38;4.47;;;3.10;;
9140;SDS011;46330;50.822;7.126;2023-05-20T13:31:07;7.13;;;3.22;;
9140;SDS011;46330;50.822;7.126;2023-05-20T13:33:35;4.60;;;3.40;;
9140;SDS011;46330;50.822;7.126;2023-05-20T13:36:03;3.33;;;2.70;;
9140;SDS011;46330;50.822;7.126;2023-05-20T13:38:31;6.22;;;3.15;;
9140;SDS011;46330;50.822;7.126;2023-05-20T13:41:01;6.03;;;3.30;;
9140;SDS011;46330;50.822;7.126;2023-05-20T13:43:31;5.00;;;3.10;;
9140;SDS011;46330;50.822;7.126;2023-05-20T13:45:59;4.22;;;3.17;;
9140;SDS011;46330;50.822;7.126;2023-05-20T13:48:27;5.97;;;3.13;;
9140;SDS011;46330;50.822;7.126;2023-05-20T13:50:55;6.20;;;3.40;;
9140;SDS011;46330;50.822;7.126;2023-05-20T13:53:23;5.93;;;3.15;;
9140;SDS011;46330;50.822;7.126;2023-05-20T13:55:51;4.72;;;3.40;;
9140;SDS011;46330;50.822;7.126;2023-05-20T13:58:20;4.47;;;3.08;;
9140;SDS011;46330;50.822;7.126;2023-05-20T14:00:49;5.85;;;3.67;;
9140;SDS011;46330;50.822;7.126;2023-05-20T14:03:17;4.93;;;3.33;;
9140;SDS011;46330;50.822;7.126;2023-05-20T14:05:45;4.85;;;3.13;;
9140;SDS011;46330;50.822;7.126;2023-05-20T14:08:13;4.53;;;3.20;;
9140;SDS011;46330;50.822;7.126;2023-05-20T14:10:41;3.67;;;3.00;;
9140;SDS011;46330;50.822;7.126;2023-05-20T14:13:09;4.40;;;3.10;;
9140;SDS011;46330;50.822;7.126;2023-05-20T14:15:37;3.35;;;2.80;;
9140;SDS011;46330;50.822;7.126;2023-05-20T14:18:07;4.80;;;2.85;;
9140;SDS011;46330;50.822;7.126;2023-05-20T14:20:36;4.53;;;3.22;;
9140;SDS011;46330;50.822;7.126;2023-05-20T14:23:04;6.03;;;3.00;;
9140;SDS011;46330;50.822;7.126;2023-05-20T14:25:32;4.50;;;3.10;;
9140;SDS011;46330;50.822;7.126;2023-05-20T14:28:00;4.22;;;2.90;;
9140;SDS011;46330;50.822;7.126;2023-05-20T14:30:28;7.03;;;3.40;;
9140;SDS011;46330;50.822;7.126;2023-05-20T14:32:56;5.72;;;3.28;;
9140;SDS011;46330;50.822;7.126;2023-05-20T14:35:25;4.20;;;3.10;;
9140;SDS011;46330;50.822;7.126;2023-05-20T14:37:53;4.65;;;3.15;;
9140;SDS011;46330;50.822;7.126;2023-05-20T14:43:14;4.22;;;2.95;;
9140;SDS011;46330;50.822;7.126;2023-05-20T14:45:42;3.85;;;3.10;;
9140;SDS011;46330;50.822;7.126;2023-05-20T14:48:11;5.78;;;3.08;;
9140;SDS011;46330;50.822;7.126;2023-05-20T14:50:41;3.50;;;3.00;;
9140;SDS011;46330;50.822;7.126;2023-05-20T14:53:09;6.38;;;3.20;;
9140;SDS011;46330;50.822;7.126;2023-05-20T14:55:37;6.13;;;3.30;;
9140;SDS011;46330;50.822;7.126;2023-05-20T14:58:05;5.03;;;3.38;;
9140;SDS011;46330;50.822;7.126;2023-05-20T15:00:33;3.78;;;3.10;;
9140;SDS011;46330;50.822;7.126;2023-05-20T15:03:01;7.10;;;3.13;;
9140;SDS011;46330;50.822;7.126;2023-05-20T15:05:30;4.82;;;3.45;;
9140;SDS011;46330;50.822;7.126;2023-05-20T15:07:59;6.85;;;3.13;;
9140;SDS011;46330;50.822;7.126;2023-05-20T15:10:27;4.57;;;3.22;;
9140;SDS011;46330;50.822;7.126;2023-05-20T15:12:56;5.90;;;2.97;;
9140;SDS011;46330;50.822;7.126;2023-05-20T15:15:23;4.75;;;3.55;;
9140;SDS011;46330;50.822;7.126;2023-05-20T15:17:51;9.73;;;8.15;;